Terminal Aerodrome Forecast
Issued by NWS Dodge City, KS

Home | Current Version | Previous Version | Graphics & Text | Print | Product List | Glossary Off
Versions: 1 2 3 4 5 6 7 8 9 10 11 12 13 14 15 16 17 18 19 20 21 22 23 24 25 26 27 28 29 30

000
FTUS43 KDDC 271120
TAFDDC
TAF
KDDC 271120Z 2712/2812 17007KT P6SM BKN250
     FM272100 14017G25KT P6SM VCTS BKN070CB
     FM280300 09011KT P6SM BKN015
     FM280900 36009KT P6SM SCT008=

USA.gov is the U.S. government's official web portal to all federal, state and local government web resources and services.